Time;durP1;ratioP1;P1;durP2;ratioP2;P2;SDS_P1;SDS_P2;PMS_P1;PMS_P2;Temp;Humidity;BMP_temperature;BMP_pressure;BME280_temperature;BME280_humidity;BME280_pressure;Samples;Min_cycle;Max_cycle;Signal;HPM_P1;HPM_P2
2024/01/19 00:00:15;;;;;;;204.13;130.43;;;;;;;;;;5061485;28;20032;-86
2024/01/19 00:02:41;;;;;;;190.02;116.78;;;;;;;;;;5044808;28;20034;-87
2024/01/19 00:05:06;;;;;;;199.82;120.18;;;;;;;;;;5064733;28;20112;-86
2024/01/19 00:07:31;;;;;;;276.85;182.85;;;;;;;;;;5062156;28;20601;-86
2024/01/19 00:09:57;;;;;;;217.18;134.73;;;;;;;;;;5041755;28;20020;-87
2024/01/19 00:12:27;;;;;;;196.32;118.93;;;;;;;;;;5072191;28;20017;-87
2024/01/19 00:14:52;;;;;;;213.50;127.97;;;;;;;;;;5069197;28;20017;-87
2024/01/19 00:17:18;;;;;;;251.02;142.10;;;;;;;;;;5068601;28;20024;-87
2024/01/19 00:19:43;;;;;;;226.05;126.88;;;;;;;;;;5085221;28;20248;-87
2024/01/19 00:22:08;;;;;;;235.70;134.55;;;;;;;;;;5091077;28;20076;-86
2024/01/19 00:24:34;;;;;;;378.40;219.90;;;;;;;;;;5064160;28;20020;-86
2024/01/19 00:26:59;;;;;;;176.07;105.30;;;;;;;;;;5065960;28;20016;-86
2024/01/19 00:29:24;;;;;;;206.32;118.32;;;;;;;;;;5066717;28;20022;-86
2024/01/19 00:31:50;;;;;;;165.18;99.10;;;;;;;;;;5065527;28;20027;-86
2024/01/19 00:34:16;;;;;;;201.55;115.38;;;;;;;;;;5065206;28;20564;-87
2024/01/19 00:36:42;;;;;;;358.75;198.88;;;;;;;;;;5066881;28;20559;-87
2024/01/19 00:39:07;;;;;;;185.98;116.88;;;;;;;;;;5048314;28;20028;-85
2024/01/19 00:41:32;;;;;;;240.23;143.45;;;;;;;;;;5052577;28;20032;-86
2024/01/19 00:43:58;;;;;;;158.90;101.68;;;;;;;;;;5048353;28;20024;-87
2024/01/19 00:46:23;;;;;;;145.93;98.88;;;;;;;;;;5049328;28;20077;-86
2024/01/19 00:48:49;;;;;;;151.52;101.18;;;;;;;;;;5042660;28;20025;-85
2024/01/19 00:51:15;;;;;;;149.00;100.00;;;;;;;;;;5073543;28;20020;-86
2024/01/19 00:53:40;;;;;;;133.93;91.25;;;;;;;;;;5046602;28;20039;-87
2024/01/19 00:56:07;;;;;;;169.23;102.85;;;;;;;;;;5050309;28;20048;-86
2024/01/19 00:58:32;;;;;;;172.32;108.90;;;;;;;;;;5050604;28;20678;-86
2024/01/19 01:00:57;;;;;;;232.10;128.68;;;;;;;;;;5065591;28;20123;-86
2024/01/19 01:03:23;;;;;;;152.35;93.38;;;;;;;;;;5050251;28;20111;-86
2024/01/19 01:05:49;;;;;;;146.40;92.65;;;;;;;;;;5053391;28;20040;-86
2024/01/19 01:08:14;;;;;;;193.55;114.35;;;;;;;;;;5072633;28;20024;-87
2024/01/19 01:10:39;;;;;;;163.80;94.75;;;;;;;;;;5052182;28;20016;-85
2024/01/19 01:13:05;;;;;;;140.25;87.70;;;;;;;;;;5049970;28;20023;-85
2024/01/19 01:15:30;;;;;;;120.10;72.10;;;;;;;;;;5045915;28;20438;-87
2024/01/19 01:17:55;;;;;;;116.25;69.22;;;;;;;;;;5069219;28;20140;-87
2024/01/19 01:20:21;;;;;;;125.10;75.32;;;;;;;;;;5062536;28;20076;-87
2024/01/19 01:22:46;;;;;;;92.30;55.95;;;;;;;;;;5056661;28;20016;-86
2024/01/19 01:25:12;;;;;;;81.38;49.40;;;;;;;;;;5052466;28;20028;-86
2024/01/19 01:27:37;;;;;;;90.35;52.17;;;;;;;;;;5080946;28;20078;-87
2024/01/19 01:30:07;;;;;;;69.60;39.42;;;;;;;;;;5071107;28;20093;-87
2024/01/19 01:32:33;;;;;;;52.53;32.40;;;;;;;;;;5046719;28;20647;-87
2024/01/19 01:34:58;;;;;;;70.35;39.03;;;;;;;;;;5046063;28;20025;-86
2024/01/19 01:37:24;;;;;;;54.63;33.38;;;;;;;;;;5068295;28;20029;-86
2024/01/19 01:39:49;;;;;;;71.03;43.03;;;;;;;;;;5067701;28;20024;-86
2024/01/19 01:42:17;;;;;;;63.33;40.38;;;;;;;;;;5053794;28;20140;-86
2024/01/19 01:44:42;;;;;;;71.68;47.95;;;;;;;;;;5067141;28;20012;-86
2024/01/19 01:47:08;;;;;;;102.78;63.85;;;;;;;;;;5066738;28;20012;-84
2024/01/19 01:49:33;;;;;;;102.20;64.35;;;;;;;;;;5066414;28;20108;-85
2024/01/19 01:51:58;;;;;;;128.13;74.78;;;;;;;;;;5048989;28;20017;-86
2024/01/19 01:54:24;;;;;;;124.88;72.53;;;;;;;;;;5048441;28;20039;-84
2024/01/19 01:56:49;;;;;;;144.63;82.68;;;;;;;;;;5046898;28;20028;-86
2024/01/19 01:59:15;;;;;;;158.88;91.55;;;;;;;;;;5055889;28;20090;-86
2024/01/19 02:01:40;;;;;;;133.73;82.53;;;;;;;;;;5046959;28;20048;-85
2024/01/19 02:04:08;;;;;;;143.40;97.78;;;;;;;;;;5046072;28;20635;-86
2024/01/19 02:06:33;;;;;;;116.85;72.60;;;;;;;;;;5050428;28;20016;-86
2024/01/19 02:08:58;;;;;;;135.32;82.03;;;;;;;;;;5070195;28;20028;-86
2024/01/19 02:11:24;;;;;;;140.90;85.30;;;;;;;;;;5051501;28;20020;-85
2024/01/19 02:13:49;;;;;;;82.30;49.85;;;;;;;;;;5070839;28;20028;-87
2024/01/19 02:16:14;;;;;;;64.50;38.25;;;;;;;;;;5050855;28;20051;-86
2024/01/19 02:18:40;;;;;;;70.90;42.35;;;;;;;;;;5069537;28;20071;-85
2024/01/19 02:21:09;;;;;;;81.53;46.25;;;;;;;;;;5038449;28;20066;-85
2024/01/19 02:23:35;;;;;;;51.15;31.27;;;;;;;;;;5070502;28;20020;-85
2024/01/19 02:26:02;;;;;;;70.45;42.55;;;;;;;;;;5052735;28;20020;-86
2024/01/19 02:28:27;;;;;;;68.82;44.63;;;;;;;;;;5050769;28;20024;-86
2024/01/19 02:30:52;;;;;;;77.63;44.08;;;;;;;;;;5051111;28;20025;-86
2024/01/19 02:33:18;;;;;;;102.22;53.50;;;;;;;;;;5050870;28;20564;-86
2024/01/19 02:35:43;;;;;;;69.20;40.90;;;;;;;;;;5048851;28;20020;-86
2024/01/19 02:38:08;;;;;;;102.85;58.50;;;;;;;;;;5066149;28;20024;-86
2024/01/19 02:40:36;;;;;;;90.03;47.83;;;;;;;;;;5057760;28;20040;-87
2024/01/19 02:43:01;;;;;;;54.78;31.25;;;;;;;;;;5067272;28;20032;-87
2024/01/19 02:45:26;;;;;;;49.70;26.17;;;;;;;;;;5055412;28;20024;-85
2024/01/19 02:47:52;;;;;;;24.40;15.25;;;;;;;;;;5047242;28;20171;-86
2024/01/19 02:50:17;;;;;;;41.85;26.48;;;;;;;;;;5053956;28;20256;-86
2024/01/19 02:52:44;;;;;;;30.95;20.25;;;;;;;;;;5052766;28;20028;-87
2024/01/19 02:55:09;;;;;;;17.70;11.00;;;;;;;;;;5063972;28;20071;-86
2024/01/19 02:57:34;;;;;;;22.90;11.48;;;;;;;;;;5048911;28;20691;-86
2024/01/19 03:00:00;;;;;;;24.38;13.43;;;;;;;;;;5069122;28;20023;-86
2024/01/19 03:02:25;;;;;;;12.23;7.47;;;;;;;;;;5055537;28;20077;-86
2024/01/19 03:04:50;;;;;;;13.40;7.85;;;;;;;;;;5052893;28;20043;-85
2024/01/19 03:07:16;;;;;;;12.35;6.60;;;;;;;;;;5057907;28;20048;-86
2024/01/19 03:09:41;;;;;;;14.82;10.70;;;;;;;;;;5053850;28;20108;-85
2024/01/19 03:12:07;;;;;;;12.45;7.05;;;;;;;;;;5064296;28;20012;-86
2024/01/19 03:14:33;;;;;;;15.43;8.52;;;;;;;;;;5052924;28;20028;-86
2024/01/19 03:16:58;;;;;;;11.45;5.97;;;;;;;;;;5061905;28;20021;-86
2024/01/19 03:19:23;;;;;;;12.05;6.28;;;;;;;;;;5043115;28;20127;-86
2024/01/19 03:21:49;;;;;;;19.15;8.60;;;;;;;;;;5034928;28;20116;-86
2024/01/19 03:24:14;;;;;;;15.32;9.15;;;;;;;;;;5038160;28;20108;-86
2024/01/19 03:26:42;;;;;;;27.80;11.65;;;;;;;;;;5033103;28;20041;-85
2024/01/19 03:29:07;;;;;;;16.15;8.45;;;;;;;;;;5043342;28;20033;-86
2024/01/19 03:31:32;;;;;;;16.85;7.85;;;;;;;;;;5045368;28;20031;-86
2024/01/19 03:33:58;;;;;;;13.23;7.88;;;;;;;;;;5035297;28;20021;-86
2024/01/19 03:36:23;;;;;;;25.38;13.85;;;;;;;;;;5036770;28;20112;-85
2024/01/19 03:38:48;;;;;;;86.43;43.42;;;;;;;;;;5024736;28;20047;-85
2024/01/19 03:41:14;;;;;;;26.23;15.55;;;;;;;;;;5046896;28;20032;-86
2024/01/19 03:43:41;;;;;;;88.85;42.15;;;;;;;;;;5024601;28;20025;-85
2024/01/19 03:46:07;;;;;;;206.80;108.60;;;;;;;;;;5039677;28;20095;-85
2024/01/19 03:48:32;;;;;;;129.52;73.25;;;;;;;;;;5036396;28;20112;-86
2024/01/19 03:50:58;;;;;;;12.20;5.57;;;;;;;;;;5043138;28;20548;-85
2024/01/19 03:53:23;;;;;;;8.20;4.55;;;;;;;;;;5031560;28;20685;-85
2024/01/19 03:55:48;;;;;;;69.07;37.78;;;;;;;;;;5046946;28;20039;-85
2024/01/19 03:58:14;;;;;;;16.05;10.68;;;;;;;;;;5036596;28;20036;-85
2024/01/19 04:00:39;;;;;;;10.82;6.40;;;;;;;;;;5040256;28;20032;-85
2024/01/19 04:03:04;;;;;;;19.10;10.55;;;;;;;;;;5032205;28;20049;-85
2024/01/19 04:05:30;;;;;;;15.13;8.82;;;;;;;;;;5034976;28;20070;-86
2024/01/19 04:07:55;;;;;;;14.60;7.60;;;;;;;;;;5035328;28;20129;-85
2024/01/19 04:10:20;;;;;;;15.30;7.47;;;;;;;;;;5038429;28;20494;-86
2024/01/19 04:12:46;;;;;;;20.15;8.40;;;;;;;;;;5037818;28;20680;-86
2024/01/19 04:15:11;;;;;;;26.95;15.45;;;;;;;;;;5027403;28;20586;-85
2024/01/19 04:17:37;;;;;;;31.77;16.60;;;;;;;;;;5034575;28;20037;-85
2024/01/19 04:20:02;;;;;;;30.25;17.15;;;;;;;;;;5041470;28;20021;-85
2024/01/19 04:22:27;;;;;;;76.43;41.28;;;;;;;;;;5045339;28;20074;-85
2024/01/19 04:24:52;;;;;;;63.50;38.10;;;;;;;;;;5041844;28;20017;-85
2024/01/19 04:27:18;;;;;;;41.45;24.88;;;;;;;;;;5045009;28;20502;-85
2024/01/19 04:29:43;;;;;;;46.67;27.73;;;;;;;;;;5041267;28;20024;-85
2024/01/19 04:32:08;;;;;;;51.08;26.35;;;;;;;;;;5045970;28;20099;-87
2024/01/19 04:34:34;;;;;;;35.05;21.85;;;;;;;;;;5043835;28;20021;-87
2024/01/19 04:36:59;;;;;;;46.05;24.40;;;;;;;;;;5043250;28;20082;-86
2024/01/19 04:39:25;;;;;;;97.57;65.95;;;;;;;;;;5043971;28;20633;-84
2024/01/19 04:41:50;;;;;;;133.60;81.38;;;;;;;;;;5045975;28;20024;-86
2024/01/19 04:44:15;;;;;;;15.48;8.90;;;;;;;;;;5041968;28;20112;-86
2024/01/19 04:46:41;;;;;;;18.80;10.82;;;;;;;;;;5043772;28;20601;-86
2024/01/19 04:49:06;;;;;;;26.50;14.70;;;;;;;;;;5044030;28;20028;-85
2024/01/19 04:51:31;;;;;;;22.83;12.68;;;;;;;;;;5046175;28;20543;-86
2024/01/19 04:53:59;;;;;;;22.45;13.25;;;;;;;;;;5047941;28;20491;-86
2024/01/19 04:56:24;;;;;;;29.00;14.63;;;;;;;;;;5054236;28;20757;-85
2024/01/19 04:58:50;;;;;;;38.38;21.60;;;;;;;;;;5045989;28;20157;-86
2024/01/19 05:01:15;;;;;;;27.77;16.25;;;;;;;;;;5053116;28;20074;-85
2024/01/19 05:03:41;;;;;;;31.92;17.80;;;;;;;;;;5041373;28;20113;-85
2024/01/19 05:06:06;;;;;;;24.13;13.82;;;;;;;;;;5044433;28;20044;-87
2024/01/19 05:08:32;;;;;;;32.00;17.55;;;;;;;;;;5051327;28;20626;-86
2024/01/19 05:10:57;;;;;;;29.08;16.27;;;;;;;;;;5048312;28;20036;-86
2024/01/19 05:13:22;;;;;;;34.13;18.25;;;;;;;;;;5051513;28;20017;-86
2024/01/19 05:15:48;;;;;;;55.65;28.27;;;;;;;;;;5047292;28;20017;-87
2024/01/19 05:18:13;;;;;;;36.85;20.77;;;;;;;;;;5050493;28;20624;-85
2024/01/19 05:20:38;;;;;;;57.42;30.73;;;;;;;;;;5052199;28;20032;-85
2024/01/19 05:23:04;;;;;;;47.60;25.15;;;;;;;;;;5044991;28;20116;-85
2024/01/19 05:25:30;;;;;;;51.67;26.80;;;;;;;;;;5044873;28;20035;-86
2024/01/19 05:27:55;;;;;;;69.40;41.28;;;;;;;;;;5048101;28;20020;-85
2024/01/19 05:30:21;;;;;;;43.78;23.98;;;;;;;;;;5047329;28;20019;-86
2024/01/19 05:32:46;;;;;;;40.08;25.83;;;;;;;;;;5047026;28;20024;-86
2024/01/19 05:35:11;;;;;;;47.72;28.40;;;;;;;;;;5044802;28;20017;-85
2024/01/19 05:37:37;;;;;;;87.78;47.00;;;;;;;;;;5050477;28;20593;-85
2024/01/19 05:40:03;;;;;;;53.75;32.20;;;;;;;;;;5049282;28;20048;-85
2024/01/19 05:42:28;;;;;;;37.53;23.85;;;;;;;;;;5046571;28;20025;-85
2024/01/19 05:44:54;;;;;;;51.88;29.70;;;;;;;;;;5051083;28;20032;-85
2024/01/19 05:47:19;;;;;;;28.08;17.00;;;;;;;;;;5052432;28;20487;-86
2024/01/19 05:49:44;;;;;;;36.03;22.15;;;;;;;;;;5050912;28;20101;-86
2024/01/19 05:52:10;;;;;;;44.08;27.65;;;;;;;;;;5049387;28;20021;-86
2024/01/19 05:54:35;;;;;;;57.15;36.35;;;;;;;;;;5044325;28;20022;-85
2024/01/19 05:57:00;;;;;;;54.10;34.42;;;;;;;;;;5049299;28;20013;-86
2024/01/19 05:59:26;;;;;;;48.25;31.02;;;;;;;;;;5050667;28;20086;-86
2024/01/19 06:01:52;;;;;;;48.35;30.48;;;;;;;;;;5044800;28;20028;-86
2024/01/19 06:04:18;;;;;;;76.53;46.20;;;;;;;;;;5045503;28;20025;-87
2024/01/19 06:06:43;;;;;;;368.42;202.93;;;;;;;;;;5035832;28;20022;-86
2024/01/19 06:09:09;;;;;;;190.23;95.88;;;;;;;;;;5041691;28;20518;-86
2024/01/19 06:11:34;;;;;;;188.00;97.22;;;;;;;;;;5045935;28;20532;-86
2024/01/19 06:14:00;;;;;;;168.65;85.82;;;;;;;;;;5047383;28;20105;-87
2024/01/19 06:16:25;;;;;;;74.07;43.33;;;;;;;;;;5044187;28;20056;-86
2024/01/19 06:18:50;;;;;;;82.18;50.55;;;;;;;;;;5063268;28;20044;-87
2024/01/19 06:21:16;;;;;;;38.20;24.15;;;;;;;;;;5049951;28;20090;-85
2024/01/19 06:23:41;;;;;;;101.20;59.83;;;;;;;;;;5065272;28;20021;-85
2024/01/19 06:26:10;;;;;;;83.10;46.22;;;;;;;;;;5048534;28;20029;-85
2024/01/19 06:28:35;;;;;;;;;;;;;;;;;;5067560;28;20024;-85
2024/01/19 06:31:02;;;;;;;41.30;26.17;;;;;;;;;;5070686;28;19908;-85
2024/01/19 06:33:27;;;;;;;53.60;31.27;;;;;;;;;;5064712;28;20087;-84
2024/01/19 06:35:53;;;;;;;43.90;27.80;;;;;;;;;;5048810;28;20112;-85
2024/01/19 06:38:18;;;;;;;114.60;60.20;;;;;;;;;;5046465;28;20103;-85
2024/01/19 06:40:43;;;;;;;85.90;51.10;;;;;;;;;;5048064;28;20111;-86
2024/01/19 06:43:10;;;;;;;110.50;68.25;;;;;;;;;;5044792;28;20016;-87
2024/01/19 06:45:36;;;;;;;82.97;49.50;;;;;;;;;;5040615;28;20029;-85
2024/01/19 06:48:01;;;;;;;80.65;48.38;;;;;;;;;;5046369;28;20486;-85
2024/01/19 06:50:26;;;;;;;57.95;36.72;;;;;;;;;;5046287;28;20063;-85
2024/01/19 06:52:53;;;;;;;101.13;54.00;;;;;;;;;;5046886;28;20567;-84
2024/01/19 06:55:18;;;;;;;77.35;43.58;;;;;;;;;;5050499;28;20019;-84
2024/01/19 06:57:43;;;;;;;75.88;42.63;;;;;;;;;;5049309;28;20599;-86
2024/01/19 07:00:09;;;;;;;101.03;59.42;;;;;;;;;;5065430;28;20014;-86
2024/01/19 07:02:34;;;;;;;56.13;34.97;;;;;;;;;;5048855;28;20097;-85
2024/01/19 07:04:59;;;;;;;186.65;104.88;;;;;;;;;;5064110;28;20020;-87
2024/01/19 07:07:25;;;;;;;236.50;127.25;;;;;;;;;;5046510;28;20029;-85
2024/01/19 07:09:50;;;;;;;352.38;173.20;;;;;;;;;;5059954;28;20044;-85
2024/01/19 07:12:16;;;;;;;199.05;96.10;;;;;;;;;;5061377;28;20035;-85
2024/01/19 07:14:42;;;;;;;317.75;137.90;;;;;;;;;;5068269;28;20069;-85
2024/01/19 07:17:07;;;;;;;147.65;69.80;;;;;;;;;;5052144;28;20107;-87
2024/01/19 07:19:34;;;;;;;274.23;118.82;;;;;;;;;;5042363;28;20108;-85
2024/01/19 07:21:59;;;;;;;102.00;52.80;;;;;;;;;;5043323;28;20672;-86
2024/01/19 07:24:32;;;;;;;137.98;69.65;;;;;;;;;;5064139;28;20115;-85
2024/01/19 07:26:57;;;;;;;207.35;104.10;;;;;;;;;;5042310;28;20635;-86
2024/01/19 07:29:23;;;;;;;125.50;67.85;;;;;;;;;;5052810;28;20115;-86
2024/01/19 07:31:48;;;;;;;252.68;139.23;;;;;;;;;;5057977;28;20021;-88
2024/01/19 07:34:13;;;;;;;112.55;69.20;;;;;;;;;;5066607;28;20129;-85
2024/01/19 07:36:39;;;;;;;135.88;88.82;;;;;;;;;;5051070;28;20063;-85
2024/01/19 07:39:04;;;;;;;103.28;66.30;;;;;;;;;;5059291;28;20020;-84
2024/01/19 07:41:29;;;;;;;97.80;57.60;;;;;;;;;;5052644;28;20028;-85
2024/01/19 07:43:55;;;;;;;91.40;58.60;;;;;;;;;;5068881;28;20647;-86
2024/01/19 07:46:21;;;;;;;99.05;61.78;;;;;;;;;;5070018;28;20661;-86
2024/01/19 07:48:47;;;;;;;49.03;32.13;;;;;;;;;;5062555;28;20021;-86
2024/01/19 07:51:12;;;;;;;35.70;18.70;;;;;;;;;;5062940;28;20028;-85
2024/01/19 07:53:37;;;;;;;23.27;13.07;;;;;;;;;;5050318;28;20074;-90
2024/01/19 07:56:05;;;;;;;25.92;16.45;;;;;;;;;;5055667;28;20020;-87
2024/01/19 07:58:30;;;;;;;37.80;27.67;;;;;;;;;;5039418;28;20017;-87
2024/01/19 08:00:56;;;;;;;39.30;26.50;;;;;;;;;;5064715;28;20039;-87
2024/01/19 08:03:21;;;;;;;21.65;13.80;;;;;;;;;;5042973;28;20070;-89
2024/01/19 08:05:47;;;;;;;22.33;12.40;;;;;;;;;;5037328;28;20032;-89
2024/01/19 08:08:15;;;;;;;35.55;21.08;;;;;;;;;;5056826;28;20016;-92
2024/01/19 08:10:40;;;;;;;15.20;8.18;;;;;;;;;;5042593;28;20025;-88
2024/01/19 08:13:06;;;;;;;40.85;22.05;;;;;;;;;;5038321;28;20115;-89
2024/01/19 08:15:31;;;;;;;35.47;19.15;;;;;;;;;;5063608;28;20021;-87
2024/01/19 08:17:56;;;;;;;24.83;13.40;;;;;;;;;;5051497;28;20032;-86
2024/01/19 08:20:22;;;;;;;22.45;10.45;;;;;;;;;;5046006;28;20028;-87
2024/01/19 08:22:48;;;;;;;25.70;14.00;;;;;;;;;;5066416;28;20020;-87
2024/01/19 08:25:14;;;;;;;34.15;19.20;;;;;;;;;;5046906;28;20492;-89
2024/01/19 08:27:43;;;;;;;20.52;9.40;;;;;;;;;;5047067;28;20036;-87
2024/01/19 08:30:08;;;;;;;26.92;16.77;;;;;;;;;;5048151;28;20336;-89
2024/01/19 08:32:35;;;;;;;21.48;11.73;;;;;;;;;;5042144;28;20029;-88
2024/01/19 08:35:08;;;;;;;33.05;18.63;;;;;;;;;;5045045;28;20696;-88
2024/01/19 08:37:36;;;;;;;18.88;9.07;;;;;;;;;;5064421;28;20107;-87
2024/01/19 08:40:01;;;;;;;38.55;22.42;;;;;;;;;;5064311;28;20490;-89
2024/01/19 08:42:27;;;;;;;32.85;16.50;;;;;;;;;;5044280;28;20037;-87
2024/01/19 08:44:52;;;;;;;24.50;13.77;;;;;;;;;;5063338;28;20017;-88
2024/01/19 08:47:18;;;;;;;40.60;26.55;;;;;;;;;;5045513;28;20024;-87
2024/01/19 08:49:43;;;;;;;20.23;9.85;;;;;;;;;;5037883;28;20120;-88
2024/01/19 08:52:08;;;;;;;23.40;11.48;;;;;;;;;;5062928;28;20013;-90
2024/01/19 08:54:34;;;;;;;24.58;12.65;;;;;;;;;;5040444;28;20103;-85
2024/01/19 08:56:59;;;;;;;26.98;13.75;;;;;;;;;;5063192;28;20438;-86
2024/01/19 08:59:25;;;;;;;24.80;11.50;;;;;;;;;;5044432;28;20386;-87
2024/01/19 09:01:53;;;;;;;38.78;18.05;;;;;;;;;;5041390;28;20024;-90
2024/01/19 09:04:18;;;;;;;13.43;6.00;;;;;;;;;;5056902;28;20029;-87
2024/01/19 09:06:44;;;;;;;11.90;5.03;;;;;;;;;;5037938;28;20537;-87
2024/01/19 09:09:09;;;;;;;21.63;9.27;;;;;;;;;;5059070;28;20066;-87
2024/01/19 09:11:34;;;;;;;23.83;11.48;;;;;;;;;;5047868;28;20739;-88
2024/01/19 09:14:00;;;;;;;95.53;46.92;;;;;;;;;;5041092;28;20659;-87
2024/01/19 09:16:25;;;;;;;49.15;28.70;;;;;;;;;;5039382;28;20621;-87
2024/01/19 09:18:50;;;;;;;25.23;12.82;;;;;;;;;;5036231;28;20067;-88
2024/01/19 09:21:17;;;;;;;24.63;12.25;;;;;;;;;;5063186;28;20051;-86
2024/01/19 09:23:43;;;;;;;17.58;9.10;;;;;;;;;;5039952;28;20533;-86
2024/01/19 09:26:16;;;;;;;42.33;19.40;;;;;;;;;;5065664;28;20024;-87
2024/01/19 09:28:41;;;;;;;62.58;29.08;;;;;;;;;;5054536;28;20648;-88
2024/01/19 09:31:06;;;;;;;23.92;14.30;;;;;;;;;;5067155;28;20025;-87
2024/01/19 09:33:32;;;;;;;24.08;12.88;;;;;;;;;;5045774;28;20032;-85
2024/01/19 09:35:57;;;;;;;29.08;14.60;;;;;;;;;;5064052;28;20013;-85
2024/01/19 09:38:23;;;;;;;23.55;10.75;;;;;;;;;;5069551;28;20028;-89
2024/01/19 09:40:49;;;;;;;15.50;7.40;;;;;;;;;;5053306;28;20020;-85
2024/01/19 09:43:15;;;;;;;32.17;17.55;;;;;;;;;;5069075;28;20075;-85
2024/01/19 09:45:41;;;;;;;29.83;12.50;;;;;;;;;;5062084;28;20024;-87
2024/01/19 09:48:09;;;;;;;15.95;10.18;;;;;;;;;;5058707;28;20070;-88
2024/01/19 09:50:36;;;;;;;22.55;10.90;;;;;;;;;;5073201;28;20139;-87
2024/01/19 09:53:04;;;;;;;15.93;7.25;;;;;;;;;;5056417;28;20085;-87
2024/01/19 09:55:29;;;;;;;24.10;13.88;;;;;;;;;;5055600;28;20144;-86
2024/01/19 09:57:58;;;;;;;16.15;7.63;;;;;;;;;;5068571;28;20480;-89
2024/01/19 10:00:23;;;;;;;16.85;6.72;;;;;;;;;;5048043;28;20017;-86
2024/01/19 10:02:51;;;;;;;12.07;7.07;;;;;;;;;;5054653;28;20027;-87
2024/01/19 10:05:16;;;;;;;11.93;6.78;;;;;;;;;;5065176;28;20039;-89
2024/01/19 10:07:43;;;;;;;12.45;6.68;;;;;;;;;;5042125;28;20025;-88
2024/01/19 10:10:09;;;;;;;12.95;6.25;;;;;;;;;;5048926;28;20107;-87
2024/01/19 10:12:34;;;;;;;18.63;8.43;;;;;;;;;;5048748;28;20127;-85
2024/01/19 10:15:00;;;;;;;10.32;5.10;;;;;;;;;;5084823;28;20707;-86
2024/01/19 10:17:25;;;;;;;11.80;5.72;;;;;;;;;;5062314;28;20672;-86
2024/01/19 10:19:51;;;;;;;13.35;7.18;;;;;;;;;;5047979;28;20692;-86
2024/01/19 10:22:24;;;;;;;34.47;21.42;;;;;;;;;;5044489;28;20107;-85
2024/01/19 10:27:57;;;;;;;23.47;12.70;;;;;;;;;;4962662;28;20807;-84
2024/01/19 10:30:24;;;;;;;19.45;10.40;;;;;;;;;;4964821;28;20065;-87
2024/01/19 10:32:51;;;;;;;33.65;22.00;;;;;;;;;;4973060;28;20034;-86
2024/01/19 10:35:21;;;;;;;14.02;7.32;;;;;;;;;;4998640;28;20113;-87
2024/01/19 10:37:46;;;;;;;14.23;7.43;;;;;;;;;;4980683;28;20022;-87
2024/01/19 10:40:14;;;;;;;12.52;6.78;;;;;;;;;;4978225;28;20029;-87
2024/01/19 10:42:40;;;;;;;8.88;4.20;;;;;;;;;;4983915;28;20021;-87
2024/01/19 10:45:15;;;;;;;12.55;7.95;;;;;;;;;;4979168;28;20693;-84
2024/01/19 10:47:44;;;;;;;14.05;6.43;;;;;;;;;;4980639;28;20022;-85
2024/01/19 10:50:15;;;;;;;14.68;6.63;;;;;;;;;;4993505;28;20014;-87
2024/01/19 10:52:44;;;;;;;15.52;8.95;;;;;;;;;;4983029;28;20073;-86
2024/01/19 10:55:16;;;;;;;15.25;7.78;;;;;;;;;;4978786;28;20050;-87
2024/01/19 10:57:41;;;;;;;11.45;6.93;;;;;;;;;;4969811;28;20762;-87
2024/01/19 11:00:20;;;;;;;13.20;5.82;;;;;;;;;;4970950;28;20018;-86
2024/01/19 11:02:49;;;;;;;18.85;7.20;;;;;;;;;;4995415;28;20722;-87
2024/01/19 11:05:16;;;;;;;17.67;10.15;;;;;;;;;;5023811;28;20028;-85
2024/01/19 11:07:44;;;;;;;26.63;17.63;;;;;;;;;;5058914;28;20497;-87
2024/01/19 11:10:10;;;;;;;12.65;7.00;;;;;;;;;;5046883;28;20024;-88
2024/01/19 11:12:37;;;;;;;30.95;20.95;;;;;;;;;;5072986;28;20025;-87
2024/01/19 11:15:06;;;;;;;30.77;20.57;;;;;;;;;;5064217;28;20012;-86
2024/01/19 11:17:32;;;;;;;22.75;15.93;;;;;;;;;;5062538;28;20273;-87
2024/01/19 11:19:57;;;;;;;25.38;15.40;;;;;;;;;;5073169;28;20020;-86
2024/01/19 11:22:23;;;;;;;34.30;19.13;;;;;;;;;;5052257;28;20565;-86
2024/01/19 11:24:48;;;;;;;19.83;13.00;;;;;;;;;;5037864;28;20059;-86
2024/01/19 11:27:22;;;;;;;16.45;8.82;;;;;;;;;;5059384;28;20027;-87
2024/01/19 11:29:49;;;;;;;17.42;11.00;;;;;;;;;;5063283;28;20030;-86
2024/01/19 11:32:14;;;;;;;52.53;31.42;;;;;;;;;;5059099;28;20023;-84
2024/01/19 11:34:43;;;;;;;14.88;8.57;;;;;;;;;;5068294;28;20604;-86
2024/01/19 11:37:28;;;;;;;11.30;6.25;;;;;;;;;;5062767;28;20456;-85
2024/01/19 11:39:54;;;;;;;11.00;7.00;;;;;;;;;;5050688;28;20050;-85
2024/01/19 11:42:34;;;;;;;12.85;7.10;;;;;;;;;;5057396;28;20051;-84
2024/01/19 11:45:00;;;;;;;11.52;7.57;;;;;;;;;;5078227;28;20031;-86
2024/01/19 11:47:35;;;;;;;16.35;10.38;;;;;;;;;;5061622;28;20099;-86
2024/01/19 11:50:01;;;;;;;11.88;6.38;;;;;;;;;;5045412;28;20047;-86
2024/01/19 11:52:36;;;;;;;14.50;7.55;;;;;;;;;;5057001;28;20020;-84
2024/01/19 11:55:22;;;;;;;12.27;5.38;;;;;;;;;;5048280;28;20016;-83
2024/01/19 11:57:47;;;;;;;15.80;7.70;;;;;;;;;;5065549;28;20024;-85
2024/01/19 12:00:13;;;;;;;37.38;16.73;;;;;;;;;;5069482;28;20024;-84
2024/01/19 12:02:38;;;;;;;20.98;11.25;;;;;;;;;;5048501;28;20051;-84
2024/01/19 12:05:08;;;;;;;17.98;9.15;;;;;;;;;;5062546;28;20016;-85
2024/01/19 12:07:34;;;;;;;50.90;29.52;;;;;;;;;;5054395;28;20020;-89
2024/01/19 12:10:05;;;;;;;17.33;9.75;;;;;;;;;;5044569;28;20563;-88
2024/01/19 12:12:31;;;;;;;24.08;13.23;;;;;;;;;;5045092;28;20029;-87
2024/01/19 12:14:56;;;;;;;32.10;15.98;;;;;;;;;;5062328;28;20017;-87
2024/01/19 12:17:22;;;;;;;14.20;7.28;;;;;;;;;;5056866;28;20111;-87
2024/01/19 12:19:51;;;;;;;17.85;8.75;;;;;;;;;;5049737;28;20185;-89
2024/01/19 12:22:17;;;;;;;36.78;19.75;;;;;;;;;;5080226;28;20020;-86
2024/01/19 12:24:45;;;;;;;32.05;14.85;;;;;;;;;;5077984;28;20027;-87
2024/01/19 12:27:16;;;;;;;36.20;16.67;;;;;;;;;;5078544;28;20048;-86
2024/01/19 12:29:49;;;;;;;19.05;8.15;;;;;;;;;;5074807;28;20039;-94
2024/01/19 12:32:20;;;;;;;30.17;13.95;;;;;;;;;;5071310;28;20024;-86
2024/01/19 12:34:58;;;;;;;64.72;25.65;;;;;;;;;;5078631;28;20397;-86
2024/01/19 12:37:26;;;;;;;71.43;37.05;;;;;;;;;;5080575;28;20048;-89
2024/01/19 12:39:51;;;;;;;11.70;5.27;;;;;;;;;;5061073;28;20042;-85
2024/01/19 12:42:17;;;;;;;36.25;17.20;;;;;;;;;;5062225;28;20265;-86
2024/01/19 12:44:42;;;;;;;16.27;9.43;;;;;;;;;;5080845;28;20081;-85
2024/01/19 12:47:07;;;;;;;40.97;20.75;;;;;;;;;;5074495;28;20082;-87
2024/01/19 12:49:33;;;;;;;15.73;7.13;;;;;;;;;;5049844;28;20031;-86
2024/01/19 12:51:58;;;;;;;22.85;12.40;;;;;;;;;;5059302;28;20024;-85
2024/01/19 12:54:23;;;;;;;28.33;19.10;;;;;;;;;;5047528;28;20021;-87
2024/01/19 12:56:49;;;;;;;37.70;26.90;;;;;;;;;;5051445;28;20020;-89
2024/01/19 12:59:21;;;;;;;40.95;30.42;;;;;;;;;;5045026;28;20090;-88
2024/01/19 13:01:47;;;;;;;29.73;22.75;;;;;;;;;;5039910;28;20047;-85
2024/01/19 13:04:13;;;;;;;31.45;19.50;;;;;;;;;;5054578;28;20016;-90
2024/01/19 13:06:39;;;;;;;49.20;31.15;;;;;;;;;;5045844;28;20122;-89
2024/01/19 13:09:04;;;;;;;13.13;7.47;;;;;;;;;;5038866;28;20498;-87
2024/01/19 13:11:30;;;;;;;24.45;15.82;;;;;;;;;;5038893;28;20115;-85
2024/01/19 13:13:59;;;;;;;19.33;9.43;;;;;;;;;;5038730;28;20040;-84
2024/01/19 13:16:24;;;;;;;23.50;15.15;;;;;;;;;;5069795;28;20108;-86
2024/01/19 13:19:02;;;;;;;36.70;20.63;;;;;;;;;;5073477;28;20120;-85
2024/01/19 13:21:28;;;;;;;14.65;7.97;;;;;;;;;;5067714;28;20127;-85
2024/01/19 13:23:53;;;;;;;19.05;9.70;;;;;;;;;;5070912;28;20054;-84
2024/01/19 13:26:19;;;;;;;24.55;13.90;;;;;;;;;;5053716;28;20024;-88
2024/01/19 13:28:45;;;;;;;44.05;25.67;;;;;;;;;;5070311;28;20760;-85
2024/01/19 13:31:10;;;;;;;36.38;20.88;;;;;;;;;;5065723;28;20734;-86
2024/01/19 13:33:36;;;;;;;24.83;12.82;;;;;;;;;;5071234;28;20107;-89
2024/01/19 13:36:01;;;;;;;20.55;12.63;;;;;;;;;;5063424;28;20036;-89
2024/01/19 13:38:26;;;;;;;16.25;9.70;;;;;;;;;;5045113;28;20057;-86
2024/01/19 13:40:52;;;;;;;17.85;10.57;;;;;;;;;;5059572;28;20386;-87
2024/01/19 13:43:18;;;;;;;31.67;16.80;;;;;;;;;;5048528;28;20024;-86
2024/01/19 13:45:43;;;;;;;26.95;16.02;;;;;;;;;;5042055;28;20724;-86
2024/01/19 13:48:08;;;;;;;34.85;20.83;;;;;;;;;;5040966;28;20077;-85
2024/01/19 13:50:34;;;;;;;29.25;16.13;;;;;;;;;;5059331;28;20020;-85
2024/01/19 13:52:59;;;;;;;28.77;15.20;;;;;;;;;;5071433;28;20538;-85
2024/01/19 13:55:25;;;;;;;48.80;26.52;;;;;;;;;;5038871;28;20123;-87
2024/01/19 13:57:50;;;;;;;108.20;59.90;;;;;;;;;;5039757;28;20021;-86
2024/01/19 14:00:15;;;;;;;69.00;43.55;;;;;;;;;;5063844;28;20019;-86
2024/01/19 14:02:41;;;;;;;32.50;22.63;;;;;;;;;;5071236;28;20016;-88
2024/01/19 14:05:07;;;;;;;32.28;19.92;;;;;;;;;;5071278;28;20478;-86
2024/01/19 14:07:33;;;;;;;34.22;20.15;;;;;;;;;;5066668;28;20028;-87
2024/01/19 14:10:02;;;;;;;22.40;14.15;;;;;;;;;;5081417;28;20057;-94
2024/01/19 14:12:28;;;;;;;16.77;12.88;;;;;;;;;;5047836;28;20028;-85